Amboy, Washington
Current Conditions -  °F | °C
As of 12:53 PM on Thursday 18 Dec 2014 (Local Time) from KSPB Reporting Station
Overcast Overcast  
Wind Chill: 46°   Ceiling: 3500
Heat Index: 46°   Visibility: 10mi
Dew Point: 42°   Wind: 3mph
Humidity: 86%   Direction: 210°SSW
Pressure: 29.89"   Gusts: NA
Location:  45.91°N, 122.45°W
Report Text: KSPB 182053Z AUTO 21003KT 10SM OVC035 08/06 A2989 RMK AO2 SLP120 60001 T00780056 58025
Loading
Personal Weather Stations






























Interactive Weather Map New forecast layout! Learn more

10-Day Weather Forecast

Advertisements
Track Severe Weather on mobile